Time;durP1;ratioP1;P1;durP2;ratioP2;P2;SDS_P1;SDS_P2;PMS_P1;PMS_P2;Temp;Humidity;BMP_temperature;BMP_pressure;BME280_temperature;BME280_humidity;BME280_pressure;Samples;Min_cycle;Max_cycle;Signal;HPM_P1;HPM_P2
2023/05/20 00:01:04;;;;;;;12.45;8.27;;;14.90;99.90;;;;;;5083179;28;20212;-72
2023/05/20 00:03:53;;;;;;;13.10;8.25;;;14.80;99.90;;;;;;5066860;28;20216;-73
2023/05/20 00:06:42;;;;;;;12.85;8.23;;;14.80;99.90;;;;;;5081945;28;20219;-73
2023/05/20 00:09:31;;;;;;;15.10;8.20;;;14.90;99.90;;;;;;5076352;28;20570;-73
2023/05/20 00:12:20;;;;;;;11.90;8.13;;;14.90;99.90;;;;;;5080977;28;20709;-73
2023/05/20 00:15:12;;;;;;;13.73;8.32;;;14.90;99.90;;;;;;5082977;28;20717;-72
2023/05/20 00:18:02;;;;;;;12.25;8.27;;;14.90;99.90;;;;;;5079620;28;20223;-75
2023/05/20 00:20:55;;;;;;;10.45;7.95;;;14.80;99.90;;;;;;5072725;28;20223;-71
2023/05/20 00:23:43;;;;;;;14.95;8.30;;;14.80;99.90;;;;;;5070288;28;20219;-74
2023/05/20 00:26:32;;;;;;;16.35;8.77;;;14.70;99.90;;;;;;5060857;28;20581;-74
2023/05/20 00:29:22;;;;;;;13.27;9.35;;;14.60;99.90;;;;;;5077862;28;20316;-73
2023/05/20 00:32:12;;;;;;;14.70;8.48;;;14.60;99.90;;;;;;5069421;28;20269;-73
2023/05/20 00:35:02;;;;;;;13.95;8.82;;;14.60;99.90;;;;;;5086474;28;20231;-74
2023/05/20 00:37:51;;;;;;;12.15;8.25;;;14.60;99.90;;;;;;5088143;28;20327;-74
2023/05/20 00:40:40;;;;;;;16.90;8.32;;;14.50;99.90;;;;;;5081471;28;20218;-74
2023/05/20 00:43:29;;;;;;;12.73;7.80;;;14.60;99.90;;;;;;5075986;28;20245;-74
2023/05/20 00:46:18;;;;;;;15.02;7.90;;;14.50;99.90;;;;;;5070921;28;20227;-74
2023/05/20 00:49:08;;;;;;;12.13;7.50;;;14.40;99.90;;;;;;5082577;28;20380;-73
2023/05/20 00:51:58;;;;;;;15.98;7.70;;;14.40;99.90;;;;;;5084820;28;20658;-73
2023/05/20 00:54:47;;;;;;;12.05;7.57;;;14.40;99.90;;;;;;5068284;28;20216;-73
2023/05/20 00:57:36;;;;;;;18.67;7.55;;;14.50;99.90;;;;;;5080305;28;20235;-72
2023/05/20 01:00:25;;;;;;;14.27;7.82;;;14.40;99.90;;;;;;5082950;28;20602;-71
2023/05/20 01:03:13;;;;;;;12.98;8.10;;;14.50;99.90;;;;;;5079719;28;20314;-72
2023/05/20 01:06:04;;;;;;;11.68;7.25;;;14.40;99.90;;;;;;5090830;28;20238;-72
2023/05/20 01:08:53;;;;;;;11.30;6.97;;;14.40;99.90;;;;;;5081721;28;20273;-73
2023/05/20 01:11:48;;;;;;;10.55;6.88;;;14.40;99.90;;;;;;5085275;28;20226;-73
2023/05/20 01:14:46;;;;;;;12.95;6.88;;;14.40;99.90;;;;;;5076354;28;20734;-73
2023/05/20 01:17:38;;;;;;;10.52;6.30;;;14.40;99.90;;;;;;5085050;28;20292;-72
2023/05/20 01:20:31;;;;;;;12.27;6.75;;;14.30;99.90;;;;;;5076496;28;20248;-74
2023/05/20 01:23:21;;;;;;;10.73;6.32;;;14.30;99.90;;;;;;5072565;28;20228;-72
2023/05/20 01:26:12;;;;;;;11.45;6.68;;;14.30;99.90;;;;;;5070614;28;20236;-72
2023/05/20 01:29:03;;;;;;;8.88;6.50;;;14.30;99.90;;;;;;5071207;28;20247;-73
2023/05/20 01:31:53;;;;;;;12.60;6.82;;;14.20;99.90;;;;;;5075157;28;20227;-73
2023/05/20 01:34:44;;;;;;;12.95;6.57;;;14.30;99.90;;;;;;5085965;28;20227;-72
2023/05/20 01:37:34;;;;;;;9.95;6.47;;;14.30;99.90;;;;;;5085866;28;20242;-73
2023/05/20 01:40:26;;;;;;;10.52;6.22;;;14.40;99.90;;;;;;5073175;28;20749;-73
2023/05/20 01:43:17;;;;;;;9.40;6.35;;;14.40;99.90;;;;;;5064386;28;20247;-72
2023/05/20 01:46:06;;;;;;;9.25;6.15;;;14.40;99.90;;;;;;5083082;28;20303;-72
2023/05/20 01:48:55;;;;;;;10.00;6.35;;;14.40;99.90;;;;;;5082579;28;20551;-72
2023/05/20 01:51:44;;;;;;;14.38;6.07;;;14.40;99.90;;;;;;5077752;28;20264;-71
2023/05/20 01:54:33;;;;;;;10.07;6.45;;;14.30;99.90;;;;;;5077699;28;20227;-72
2023/05/20 01:57:27;;;;;;;10.52;6.30;;;14.40;99.90;;;;;;5083842;28;20769;-73
2023/05/20 02:00:16;;;;;;;10.75;6.32;;;14.30;99.90;;;;;;5074054;28;20238;-72
2023/05/20 02:03:05;;;;;;;9.65;6.07;;;14.30;99.90;;;;;;5084731;28;20670;-73
2023/05/20 02:05:56;;;;;;;7.32;5.72;;;14.30;99.90;;;;;;5083173;28;20234;-72
2023/05/20 02:08:45;;;;;;;10.45;5.45;;;14.30;99.90;;;;;;5070028;28;20905;-72
2023/05/20 02:11:35;;;;;;;11.65;6.07;;;14.30;99.90;;;;;;5080682;28;20278;-72
2023/05/20 02:14:25;;;;;;;9.40;5.70;;;14.10;99.90;;;;;;5074717;28;20298;-73
2023/05/20 02:17:15;;;;;;;8.80;5.68;;;14.10;99.90;;;;;;5074041;28;20321;-72
2023/05/20 02:20:06;;;;;;;7.32;5.28;;;14.00;99.90;;;;;;5063577;28;20320;-73
2023/05/20 02:22:55;;;;;;;11.90;5.68;;;14.10;99.90;;;;;;5097461;28;20215;-74
2023/05/20 02:25:44;;;;;;;15.63;6.57;;;14.10;99.90;;;;;;5079536;28;20222;-72
2023/05/20 02:28:33;;;;;;;10.43;5.70;;;14.30;99.90;;;;;;5082893;28;20714;-73
2023/05/20 02:31:23;;;;;;;7.60;5.38;;;14.30;99.90;;;;;;5076077;28;20371;-72
2023/05/20 02:34:16;;;;;;;9.65;5.82;;;14.30;99.90;;;;;;5068214;28;20228;-72
2023/05/20 02:37:05;;;;;;;11.95;5.40;;;14.30;99.90;;;;;;5085377;28;20211;-72
2023/05/20 02:39:55;;;;;;;8.48;5.57;;;14.30;99.90;;;;;;5077569;28;20228;-74
2023/05/20 02:42:43;;;;;;;8.75;5.63;;;14.20;99.90;;;;;;5084054;28;20666;-73
2023/05/20 02:45:36;;;;;;;9.98;5.70;;;14.20;99.90;;;;;;5075822;28;20314;-73
2023/05/20 02:48:26;;;;;;;9.63;5.57;;;14.30;99.90;;;;;;5082615;28;20238;-72
2023/05/20 02:51:15;;;;;;;6.35;4.68;;;14.20;99.90;;;;;;5081953;28;20223;-72
2023/05/20 02:54:04;;;;;;;10.18;5.20;;;14.20;99.90;;;;;;5074303;28;20452;-73
2023/05/20 02:56:53;;;;;;;9.73;5.50;;;14.10;99.90;;;;;;5067426;28;20220;-73
2023/05/20 02:59:41;;;;;;;10.00;5.65;;;14.20;99.90;;;;;;5075840;28;20722;-73
2023/05/20 03:02:30;;;;;;;7.70;5.70;;;14.20;99.90;;;;;;5081443;28;20610;-71
2023/05/20 03:05:21;;;;;;;8.75;5.38;;;14.20;99.90;;;;;;5079867;28;20219;-68
2023/05/20 03:08:10;;;;;;;11.32;5.88;;;14.30;99.90;;;;;;5085594;28;20238;-72
2023/05/20 03:10:59;;;;;;;6.40;5.40;;;14.20;99.90;;;;;;5074765;28;20276;-71
2023/05/20 03:13:52;;;;;;;8.80;5.68;;;14.20;99.90;;;;;;5075537;28;20949;-73
2023/05/20 03:16:41;;;;;;;8.90;5.43;;;14.20;99.90;;;;;;5076578;28;20231;-72
2023/05/20 03:19:30;;;;;;;7.45;5.60;;;14.30;99.90;;;;;;5073537;27;20231;-72
2023/05/20 03:22:20;;;;;;;10.32;5.38;;;14.30;99.90;;;;;;5078221;28;20240;-73
2023/05/20 03:25:10;;;;;;;8.38;5.65;;;14.30;99.90;;;;;;5074799;28;20318;-73
2023/05/20 03:27:59;;;;;;;9.68;5.53;;;14.30;99.90;;;;;;5068036;28;20624;-72
2023/05/20 03:30:49;;;;;;;10.52;5.60;;;14.30;99.90;;;;;;5035026;28;20216;-73
2023/05/20 03:33:38;;;;;;;9.82;5.25;;;14.30;99.90;;;;;;5037488;28;20334;-73
2023/05/20 03:36:27;;;;;;;6.05;5.05;;;14.20;99.90;;;;;;5050121;28;20235;-73
2023/05/20 03:39:17;;;;;;;10.10;5.80;;;14.20;99.90;;;;;;5051355;28;20232;-73
2023/05/20 03:42:06;;;;;;;8.43;5.07;;;14.30;99.90;;;;;;5052009;28;20260;-73
2023/05/20 03:44:56;;;;;;;9.05;5.30;;;14.30;99.90;;;;;;5050054;28;20294;-73
2023/05/20 03:47:46;;;;;;;10.70;5.25;;;14.30;99.90;;;;;;5070300;28;20715;-73
2023/05/20 03:50:38;;;;;;;12.73;5.38;;;14.30;99.90;;;;;;5057020;28;20296;-73
2023/05/20 03:53:27;;;;;;;7.35;5.10;;;14.30;99.90;;;;;;5052084;28;20460;-73
2023/05/20 03:56:17;;;;;;;12.13;5.65;;;14.40;99.90;;;;;;5035184;28;20720;-73
2023/05/20 03:59:06;;;;;;;10.35;6.00;;;14.50;99.90;;;;;;5055234;28;20224;-73
2023/05/20 04:01:55;;;;;;;10.27;5.80;;;14.50;99.90;;;;;;5044917;28;20975;-73
2023/05/20 04:04:45;;;;;;;9.30;5.13;;;14.60;99.90;;;;;;5051194;28;20243;-73
2023/05/20 04:07:34;;;;;;;6.55;4.82;;;14.60;99.90;;;;;;5055554;28;20228;-73
2023/05/20 04:10:24;;;;;;;8.35;5.50;;;14.70;99.90;;;;;;5054835;28;20231;-73
2023/05/20 04:13:15;;;;;;;11.40;5.47;;;14.70;99.90;;;;;;5055192;28;20232;-72
2023/05/20 04:16:04;;;;;;;8.82;5.47;;;14.80;99.90;;;;;;5060454;28;20429;-73
2023/05/20 04:18:53;;;;;;;7.47;5.25;;;14.90;99.90;;;;;;5053653;28;20273;-74
2023/05/20 04:21:43;;;;;;;8.13;5.28;;;14.90;99.90;;;;;;5059651;28;20234;-73
2023/05/20 04:24:32;;;;;;;7.78;4.97;;;14.80;99.90;;;;;;5055552;28;20380;-73
2023/05/20 04:27:22;;;;;;;10.63;5.68;;;14.90;99.90;;;;;;5045530;28;20220;-72
2023/05/20 04:30:15;;;;;;;9.20;5.25;;;14.90;99.90;;;;;;5071490;28;20227;-72
2023/05/20 04:33:05;;;;;;;10.40;5.10;;;15.00;99.90;;;;;;5078848;28;20230;-74
2023/05/20 04:35:57;;;;;;;8.55;5.05;;;15.00;99.90;;;;;;5084165;28;20758;-72
2023/05/20 04:38:47;;;;;;;10.32;5.20;;;15.10;99.90;;;;;;5086769;28;20310;-73
2023/05/20 04:41:36;;;;;;;9.13;4.93;;;15.10;99.90;;;;;;5094792;28;20242;-73
2023/05/20 04:44:25;;;;;;;9.35;5.40;;;15.30;99.90;;;;;;5081397;28;20219;-73
2023/05/20 04:47:16;;;;;;;8.90;5.10;;;15.20;99.90;;;;;;5080240;28;20266;-72
2023/05/20 04:50:07;;;;;;;10.07;5.15;;;15.40;99.90;;;;;;5070775;28;20220;-74
2023/05/20 04:52:56;;;;;;;7.57;4.85;;;15.30;99.90;;;;;;5080350;28;20231;-73
2023/05/20 04:55:45;;;;;;;10.57;5.03;;;15.40;99.90;;;;;;5086124;28;20223;-72
2023/05/20 04:58:34;;;;;;;5.97;4.53;;;15.40;99.90;;;;;;5085018;28;20231;-72
2023/05/20 05:01:23;;;;;;;12.45;4.78;;;15.50;99.90;;;;;;5075696;28;20227;-72
2023/05/20 05:04:13;;;;;;;9.85;4.57;;;15.70;99.90;;;;;;5073606;28;20231;-72
2023/05/20 05:07:04;;;;;;;6.35;5.07;;;15.70;99.90;;;;;;5083461;28;20224;-72
2023/05/20 05:09:53;;;;;;;6.68;4.00;;;15.80;99.90;;;;;;5071709;28;20229;-73
2023/05/20 05:12:42;;;;;;;7.35;4.63;;;15.80;99.90;;;;;;5071190;28;20265;-73
2023/05/20 05:15:34;;;;;;;8.23;4.60;;;15.90;99.90;;;;;;5078124;28;20694;-73
2023/05/20 05:18:24;;;;;;;6.15;4.25;;;15.90;99.90;;;;;;5084664;28;20236;-72
2023/05/20 05:21:15;;;;;;;8.55;4.55;;;16.10;99.90;;;;;;5074899;28;20219;-73
2023/05/20 05:24:06;;;;;;;11.18;4.30;;;16.20;99.90;;;;;;5068388;28;20718;-73
2023/05/20 05:26:56;;;;;;;6.95;4.10;;;16.20;99.90;;;;;;5077797;28;20591;-73
2023/05/20 05:29:45;;;;;;;6.18;4.38;;;16.30;99.90;;;;;;5075823;28;20908;-72
2023/05/20 05:32:34;;;;;;;7.03;4.55;;;16.60;99.90;;;;;;5074273;28;20228;-73
2023/05/20 05:35:23;;;;;;;6.28;4.55;;;16.80;99.90;;;;;;5079650;28;20809;-71
2023/05/20 05:38:13;;;;;;;8.75;4.53;;;16.90;99.90;;;;;;5080133;28;20223;-74
2023/05/20 05:41:02;;;;;;;9.38;4.28;;;16.90;99.90;;;;;;5069657;28;20216;-72
2023/05/20 05:43:52;;;;;;;7.93;4.43;;;16.80;99.90;;;;;;5071733;28;20240;-72
2023/05/20 05:46:41;;;;;;;8.90;4.68;;;16.90;99.90;;;;;;5085434;28;20323;-72
2023/05/20 05:49:30;;;;;;;9.25;4.40;;;17.00;99.90;;;;;;5073131;28;20228;-72
2023/05/20 05:52:19;;;;;;;8.57;4.40;;;17.00;99.90;;;;;;5084565;28;20710;-71
2023/05/20 05:55:10;;;;;;;10.00;4.97;;;17.10;99.90;;;;;;5084366;28;20219;-70
2023/05/20 05:57:59;;;;;;;7.82;4.35;;;17.10;99.90;;;;;;5079799;28;20254;-72
2023/05/20 06:00:53;;;;;;;7.35;4.45;;;17.40;99.90;;;;;;5088029;28;20220;-71
2023/05/20 06:03:42;;;;;;;6.63;4.43;;;17.50;99.90;;;;;;5079073;28;20231;-73
2023/05/20 06:06:32;;;;;;;6.78;4.78;;;17.50;99.90;;;;;;5082281;28;20242;-72
2023/05/20 06:09:21;;;;;;;6.80;4.50;;;17.50;99.90;;;;;;5086077;28;20360;-72
2023/05/20 06:12:11;;;;;;;9.68;4.82;;;17.70;99.90;;;;;;5079199;28;20216;-74
2023/05/20 06:15:02;;;;;;;7.10;4.57;;;18.00;99.90;;;;;;5064389;28;20724;-72
2023/05/20 06:17:51;;;;;;;7.57;4.70;;;17.90;99.90;;;;;;5085164;28;20531;-73
2023/05/20 06:20:40;;;;;;;6.35;4.28;;;17.80;99.90;;;;;;5080164;28;20212;-72
2023/05/20 06:23:29;;;;;;;13.25;4.90;;;18.00;99.90;;;;;;5074424;28;20226;-74
2023/05/20 06:26:21;;;;;;;5.90;4.88;;;17.90;99.90;;;;;;5082459;28;20248;-73
2023/05/20 06:29:11;;;;;;;6.20;4.38;;;17.90;99.90;;;;;;5061991;28;20231;-73
2023/05/20 06:32:00;;;;;;;7.70;4.50;;;18.30;99.90;;;;;;5073228;28;20215;-73
2023/05/20 06:34:50;;;;;;;7.10;4.40;;;18.60;99.90;;;;;;5075968;28;20762;-74
2023/05/20 06:37:39;;;;;;;9.30;4.82;;;18.60;99.90;;;;;;5064570;28;20219;-73
2023/05/20 06:40:28;;;;;;;8.23;5.18;;;18.60;99.90;;;;;;5065224;28;20227;-74
2023/05/20 06:43:18;;;;;;;9.00;4.50;;;19.00;99.90;;;;;;5074530;28;20293;-74
2023/05/20 06:46:14;;;;;;;9.73;4.70;;;19.20;99.90;;;;;;5068634;28;20348;-74
2023/05/20 06:49:08;;;;;;;7.18;4.50;;;19.30;99.90;;;;;;5043367;28;20265;-74
2023/05/20 06:51:57;;;;;;;6.65;4.28;;;19.20;99.90;;;;;;5041132;28;20220;-74
2023/05/20 06:54:46;;;;;;;8.50;4.40;;;19.30;99.90;;;;;;5061527;28;20228;-74
2023/05/20 06:57:35;;;;;;;11.73;4.90;;;19.60;99.90;;;;;;5047015;28;20695;-74
2023/05/20 07:00:24;;;;;;;7.80;4.43;;;19.90;99.90;;;;;;5043364;28;20237;-73
2023/05/20 07:03:16;;;;;;;8.85;4.53;;;19.70;99.90;;;;;;5046881;28;20353;-73
2023/05/20 07:06:05;;;;;;;8.95;6.07;;;19.80;99.90;;;;;;5066036;28;20219;-74
2023/05/20 07:08:55;;;;;;;8.45;4.75;;;20.30;99.90;;;;;;5060827;28;20224;-73
2023/05/20 07:11:45;;;;;;;8.20;4.75;;;20.30;99.90;;;;;;5068601;28;20251;-73
2023/05/20 07:14:34;;;;;;;7.80;4.60;;;20.60;99.90;;;;;;5060500;28;20227;-73
2023/05/20 07:17:24;;;;;;;9.02;4.57;;;20.90;99.90;;;;;;5058286;28;20983;-71
2023/05/20 07:20:15;;;;;;;6.88;5.00;;;21.20;99.90;;;;;;5067441;28;20906;-72
2023/05/20 07:23:05;;;;;;;8.25;4.15;;;21.50;99.90;;;;;;5067894;28;20227;-73
2023/05/20 07:26:02;;;;;;;8.15;4.55;;;21.50;99.90;;;;;;5063179;28;20855;-72
2023/05/20 07:28:51;;;;;;;7.95;4.70;;;21.70;99.90;;;;;;5049225;28;20236;-73
2023/05/20 07:31:40;;;;;;;7.30;4.55;;;22.10;99.90;;;;;;5042464;28;20232;-73
2023/05/20 07:34:29;;;;;;;16.10;6.45;;;22.50;99.90;;;;;;5047713;28;20244;-73
2023/05/20 07:37:19;;;;;;;7.30;4.70;;;22.70;99.90;;;;;;5082473;28;20223;-73
2023/05/20 07:40:09;;;;;;;10.98;4.68;;;22.90;99.90;;;;;;5081545;28;20926;-73
2023/05/20 07:42:59;;;;;;;9.52;5.05;;;23.20;99.90;;;;;;5072205;28;20277;-74
2023/05/20 07:45:48;;;;;;;6.65;4.85;;;23.60;99.90;;;;;;5079192;28;20228;-73
2023/05/20 07:48:37;;;;;;;6.15;4.13;;;23.70;99.90;;;;;;5079737;28;20257;-73
2023/05/20 07:51:26;;;;;;;10.85;4.78;;;24.10;99.90;;;;;;5076011;28;20892;-73
2023/05/20 07:54:16;;;;;;;9.40;4.80;;;24.00;99.90;;;;;;5074939;28;20332;-73
2023/05/20 07:57:08;;;;;;;6.95;4.25;;;24.20;99.90;;;;;;5073385;28;20244;-72
2023/05/20 07:59:57;;;;;;;9.90;5.30;;;24.50;99.90;;;;;;5077580;27;20219;-74
2023/05/20 08:02:46;;;;;;;8.07;4.45;;;24.90;99.90;;;;;;5079074;28;20785;-74
2023/05/20 08:05:41;;;;;;;14.07;5.07;;;24.90;99.90;;;;;;5073583;28;20686;-72
2023/05/20 08:08:31;;;;;;;10.48;4.78;;;24.80;99.90;;;;;;5074471;28;20246;-74
2023/05/20 08:11:27;;;;;;;7.93;5.03;;;25.10;99.90;;;;;;5072374;28;20246;-71
2023/05/20 08:14:17;;;;;;;10.75;4.85;;;25.20;99.90;;;;;;5073740;28;20239;-74
2023/05/20 08:17:09;;;;;;;10.93;4.65;;;25.20;99.90;;;;;;5073959;28;20231;-73
2023/05/20 08:19:58;;;;;;;12.68;5.30;;;25.40;99.90;;;;;;5078727;28;20724;-74
2023/05/20 08:22:47;;;;;;;10.98;4.90;;;25.60;99.90;;;;;;5076543;28;20227;-74
2023/05/20 08:25:37;;;;;;;15.27;5.10;;;25.80;99.90;;;;;;5081462;28;20230;-74
2023/05/20 08:28:27;;;;;;;9.70;4.80;;;25.80;99.90;;;;;;5079220;28;20215;-74
2023/05/20 08:31:17;;;;;;;12.05;4.82;;;26.30;99.90;;;;;;5083479;28;20234;-73
2023/05/20 08:34:06;;;;;;;8.02;4.72;;;26.70;99.90;;;;;;5081807;28;20215;-73
2023/05/20 08:36:56;;;;;;;10.35;4.88;;;26.80;99.90;;;;;;5081279;28;20262;-75
2023/05/20 08:39:47;;;;;;;5.47;4.35;;;26.70;99.90;;;;;;5075018;28;20751;-73
2023/05/20 08:42:36;;;;;;;11.63;4.40;;;27.20;99.90;;;;;;5073210;28;20311;-74
2023/05/20 08:45:27;;;;;;;8.40;4.78;;;27.30;99.90;;;;;;5076581;28;20219;-73
2023/05/20 08:48:23;;;;;;;13.05;4.95;;;27.10;99.90;;;;;;5100043;28;20235;-73
2023/05/20 08:51:15;;;;;;;6.20;4.47;;;27.20;99.90;;;;;;5070169;28;20242;-73
2023/05/20 08:54:05;;;;;;;10.32;4.57;;;27.70;99.90;;;;;;5082612;28;20250;-73
2023/05/20 08:56:54;;;;;;;9.80;4.90;;;27.30;99.90;;;;;;5066243;28;20231;-73
2023/05/20 08:59:45;;;;;;;8.52;4.97;;;27.30;99.90;;;;;;5073532;28;20341;-73
2023/05/20 09:02:36;;;;;;;9.32;5.80;;;27.20;99.90;;;;;;5085840;28;20247;-72
2023/05/20 09:05:26;;;;;;;10.80;4.38;;;27.60;99.90;;;;;;5075983;28;20227;-75
2023/05/20 09:08:14;;;;;;;6.20;4.70;;;27.60;99.90;;;;;;5081321;28;20268;-73
2023/05/20 09:11:03;;;;;;;9.75;5.05;;;27.60;99.90;;;;;;5084953;28;20548;-74
2023/05/20 09:13:52;;;;;;;6.80;4.90;;;26.60;99.90;;;;;;5075351;28;20287;-74
2023/05/20 09:16:44;;;;;;;8.82;6.60;;;25.90;99.90;;;;;;5085400;28;20224;-72
2023/05/20 09:19:34;;;;;;;11.15;4.72;;;25.50;99.90;;;;;;5080735;28;20633;-73
2023/05/20 09:22:23;;;;;;;8.18;5.22;;;25.70;99.90;;;;;;5078529;28;20457;-73
2023/05/20 09:25:13;;;;;;;9.60;4.75;;;26.00;99.90;;;;;;5072861;28;20235;-73
2023/05/20 09:28:03;;;;;;;9.85;5.00;;;27.20;99.90;;;;;;5078670;28;20233;-74
2023/05/20 09:30:56;;;;;;;9.95;4.82;;;28.10;99.90;;;;;;5084537;28;20257;-73
2023/05/20 09:33:45;;;;;;;6.75;4.93;;;27.90;99.90;;;;;;5081864;28;20226;-74
2023/05/20 09:36:36;;;;;;;5.40;4.80;;;28.00;99.90;;;;;;5085868;28;20927;-73
2023/05/20 09:39:29;;;;;;;9.75;5.32;;;27.90;99.90;;;;;;5077613;28;20226;-74
2023/05/20 09:42:25;;;;;;;8.20;5.10;;;28.40;99.90;;;;;;5082846;28;20777;-73
2023/05/20 09:45:14;;;;;;;6.35;5.70;;;28.80;99.90;;;;;;5080024;28;20216;-71
2023/05/20 09:48:04;;;;;;;6.25;5.30;;;29.50;99.90;;;;;;5079704;28;20227;-74
2023/05/20 09:50:55;;;;;;;11.45;5.65;;;30.30;99.90;;;;;;5076084;28;20227;-73
2023/05/20 09:53:45;;;;;;;7.60;5.55;;;30.60;99.90;;;;;;5074379;28;20239;-72
2023/05/20 09:56:35;;;;;;;8.25;6.18;;;28.50;99.90;;;;;;5082726;28;20651;-73
2023/05/20 09:59:26;;;;;;;7.15;6.28;;;27.60;99.90;;;;;;5084177;28;20355;-73
2023/05/20 10:02:16;;;;;;;7.78;6.40;;;29.10;99.90;;;;;;5079599;28;20281;-74
2023/05/20 10:05:12;;;;;;;10.65;6.45;;;27.90;99.90;;;;;;5074730;28;20300;-73
2023/05/20 10:08:43;;;;;;;14.07;6.30;;;27.20;99.90;;;;;;5087872;28;20250;-73
2023/05/20 10:11:41;;;;;;;9.10;6.45;;;28.30;99.90;;;;;;5080968;28;20706;-73
2023/05/20 10:14:39;;;;;;;9.25;5.80;;;27.10;99.90;;;;;;5065774;28;20248;-73
2023/05/20 10:17:40;;;;;;;8.32;5.75;;;26.60;99.90;;;;;;5076250;28;20805;-73
2023/05/20 10:20:29;;;;;;;7.40;6.18;;;28.60;99.90;;;;;;5078463;28;20214;-73
2023/05/20 10:23:22;;;;;;;10.25;6.18;;;29.80;99.90;;;;;;5066558;28;20945;-73
2023/05/20 10:26:11;;;;;;;8.75;5.43;;;27.80;99.90;;;;;;5071871;28;20234;-73
2023/05/20 10:29:02;;;;;;;8.77;6.05;;;27.00;99.90;;;;;;5072175;28;20220;-74
2023/05/20 10:31:52;;;;;;;8.10;5.80;;;26.20;99.90;;;;;;5076112;28;20220;-73
2023/05/20 10:34:50;;;;;;;6.72;6.05;;;26.60;99.90;;;;;;5083245;28;20614;-73
2023/05/20 10:37:42;;;;;;;9.00;5.82;;;26.10;99.90;;;;;;5079666;28;20353;-72
2023/05/20 10:40:31;;;;;;;8.40;5.95;;;27.60;99.90;;;;;;5066775;28;20211;-74
2023/05/20 10:43:27;;;;;;;11.43;5.80;;;28.10;99.90;;;;;;5076186;28;20652;-74
2023/05/20 10:46:19;;;;;;;7.13;5.57;;;27.30;99.90;;;;;;5074602;28;20304;-75
2023/05/20 10:49:34;;;;;;;7.88;5.90;;;26.50;99.90;;;;;;5078613;28;20227;-73
2023/05/20 10:52:24;;;;;;;8.20;5.85;;;25.50;99.90;;;;;;5081904;28;20235;-74
2023/05/20 10:55:21;;;;;;;10.02;6.13;;;30.20;99.90;;;;;;5083532;28;21002;-72
2023/05/20 10:58:10;;;;;;;13.25;5.28;;;33.90;97.30;;;;;;5064673;28;20288;-72
2023/05/20 11:00:59;;;;;;;10.45;5.93;;;35.30;95.30;;;;;;5082903;28;20211;-74
2023/05/20 11:03:51;;;;;;;12.68;6.10;;;36.10;91.00;;;;;;5062038;28;20258;-73
2023/05/20 11:06:50;;;;;;;7.95;5.28;;;36.80;86.50;;;;;;5078362;28;20269;-73
2023/05/20 11:09:39;;;;;;;7.13;5.15;;;38.10;83.50;;;;;;5076525;28;20249;-74
2023/05/20 11:12:28;;;;;;;6.10;5.47;;;37.80;78.00;;;;;;5072244;28;20371;-74
2023/05/20 11:15:17;;;;;;;7.95;4.88;;;33.80;79.70;;;;;;5074594;28;20224;-74
2023/05/20 11:18:06;;;;;;;7.35;5.38;;;32.50;86.30;;;;;;5083117;28;20223;-74
2023/05/20 11:20:57;;;;;;;8.02;5.10;;;34.00;83.40;;;;;;5080316;28;20805;-74
2023/05/20 11:23:46;;;;;;;12.73;5.63;;;33.50;82.80;;;;;;5083397;28;20233;-73
2023/05/20 11:26:35;;;;;;;11.57;5.03;;;35.10;80.10;;;;;;5082439;28;20238;-73
2023/05/20 11:29:26;;;;;;;6.38;5.65;;;34.60;81.60;;;;;;5081081;28;20657;-73
2023/05/20 11:32:15;;;;;;;7.88;5.32;;;34.60;76.70;;;;;;5076194;28;20234;-73
2023/05/20 11:35:07;;;;;;;5.82;4.97;;;32.10;83.10;;;;;;5072068;28;20223;-73
2023/05/20 11:38:03;;;;;;;6.90;4.90;;;32.40;86.80;;;;;;5075108;28;20230;-74
2023/05/20 11:40:53;;;;;;;9.38;5.20;;;37.10;79.50;;;;;;5076649;28;20203;-74
2023/05/20 11:43:42;;;;;;;5.22;4.72;;;38.20;73.20;;;;;;5066540;28;20689;-74
2023/05/20 11:46:31;;;;;;;9.27;4.60;;;37.90;70.80;;;;;;5077447;28;20219;-73
2023/05/20 11:49:20;;;;;;;5.55;4.95;;;36.70;72.90;;;;;;5081648;28;20271;-74
2023/05/20 11:52:11;;;;;;;5.60;4.85;;;39.00;67.40;;;;;;5072503;28;20296;-73
2023/05/20 11:55:02;;;;;;;9.07;4.90;;;38.40;69.50;;;;;;5075756;28;20226;-73
2023/05/20 11:57:51;;;;;;;6.40;4.57;;;34.20;72.00;;;;;;5077407;28;20211;-74
2023/05/20 12:00:40;;;;;;;5.80;5.05;;;31.50;74.40;;;;;;5073454;28;20225;-74
2023/05/20 12:03:39;;;;;;;8.48;5.28;;;29.60;81.50;;;;;;5084057;28;20223;-73
2023/05/20 12:06:28;;;;;;;6.88;5.35;;;29.60;82.30;;;;;;5072304;28;20921;-74
2023/05/20 12:09:17;;;;;;;8.52;5.85;;;34.80;76.60;;;;;;5077903;28;20309;-73
2023/05/20 12:12:10;;;;;;;8.65;5.13;;;36.70;72.00;;;;;;5069710;28;20841;-73
2023/05/20 12:14:58;;;;;;;9.77;5.07;;;37.40;69.50;;;;;;5066572;28;20301;-74
2023/05/20 12:17:49;;;;;;;8.63;5.43;;;;;;;;;;5068529;28;20222;-74
2023/05/20 12:20:39;;;;;;;10.25;5.03;;;40.40;61.00;;;;;;5077507;28;20223;-74
2023/05/20 12:23:32;;;;;;;7.07;4.78;;;40.90;62.30;;;;;;5086168;28;20233;-74
2023/05/20 12:26:22;;;;;;;7.75;5.25;;;42.70;60.50;;;;;;5087321;28;20223;-73
2023/05/20 12:29:12;;;;;;;8.55;5.97;;;42.40;56.40;;;;;;5073054;28;20239;-74
2023/05/20 12:32:01;;;;;;;6.35;4.65;;;42.60;56.50;;;;;;5080913;28;20257;-73
2023/05/20 12:34:50;;;;;;;6.80;4.45;;;42.80;55.90;;;;;;5079415;28;20207;-74
2023/05/20 12:37:41;;;;;;;8.40;5.10;;;41.90;54.80;;;;;;5063358;28;20239;-74
2023/05/20 12:40:30;;;;;;;9.02;4.97;;;39.90;57.50;;;;;;5086620;28;20224;-74
2023/05/20 12:43:18;;;;;;;7.15;4.80;;;36.00;59.00;;;;;;5085428;28;20239;-74
2023/05/20 12:46:09;;;;;;;5.40;4.90;;;33.40;63.60;;;;;;5069698;28;20216;-74
2023/05/20 12:48:58;;;;;;;9.73;4.97;;;31.80;66.60;;;;;;5083233;28;20219;-73
2023/05/20 12:51:46;;;;;;;9.30;5.25;;;30.10;70.20;;;;;;5088702;28;20254;-72
2023/05/20 12:54:35;;;;;;;5.60;5.10;;;28.80;74.40;;;;;;5076126;28;20233;-73
2023/05/20 12:57:24;;;;;;;6.22;5.38;;;28.60;74.90;;;;;;5076443;28;20860;-73
2023/05/20 13:00:14;;;;;;;7.18;5.60;;;27.80;76.60;;;;;;5075916;28;20223;-73
2023/05/20 13:03:05;;;;;;;9.73;6.10;;;27.80;81.00;;;;;;5088013;28;20356;-72
2023/05/20 13:05:54;;;;;;;8.60;6.07;;;27.40;81.30;;;;;;5089249;28;20219;-73
2023/05/20 13:08:44;;;;;;;7.38;5.95;;;27.40;83.60;;;;;;5080717;28;20237;-72
2023/05/20 13:11:33;;;;;;;11.68;6.13;;;27.20;82.60;;;;;;5085368;28;20230;-72
2023/05/20 13:14:22;;;;;;;8.93;6.22;;;27.10;83.40;;;;;;5078410;28;20572;-74
2023/05/20 13:17:12;;;;;;;6.63;5.90;;;27.00;83.70;;;;;;5074808;28;20236;-73
2023/05/20 13:20:03;;;;;;;7.72;5.97;;;26.70;84.60;;;;;;5077768;28;20227;-73
2023/05/20 13:22:52;;;;;;;8.25;6.05;;;26.40;85.00;;;;;;5090590;28;20278;-72
2023/05/20 13:25:41;;;;;;;8.18;5.78;;;26.40;87.30;;;;;;5072853;28;20227;-72
2023/05/20 13:28:30;;;;;;;8.85;6.15;;;26.60;87.00;;;;;;5080701;28;20238;-75
2023/05/20 13:31:19;;;;;;;8.20;6.38;;;26.70;89.10;;;;;;5078907;28;20580;-74
2023/05/20 13:34:08;;;;;;;7.63;6.32;;;26.60;89.30;;;;;;5069020;28;20222;-73
2023/05/20 13:36:58;;;;;;;6.60;6.03;;;26.60;91.20;;;;;;5082049;28;20605;-73
2023/05/20 13:39:48;;;;;;;9.25;6.10;;;26.30;90.20;;;;;;5087504;28;20300;-72
2023/05/20 13:42:37;;;;;;;7.15;5.97;;;26.10;90.20;;;;;;5082948;28;20464;-74
2023/05/20 13:45:26;;;;;;;7.65;6.80;;;26.00;90.80;;;;;;5079627;28;20227;-73
2023/05/20 13:48:17;;;;;;;7.07;6.32;;;26.00;91.10;;;;;;5079758;28;20314;-72
2023/05/20 13:51:06;;;;;;;7.07;6.38;;;26.20;91.90;;;;;;5082560;28;20636;-73
2023/05/20 13:53:56;;;;;;;10.60;6.15;;;26.00;92.40;;;;;;5071435;28;20310;-73
2023/05/20 13:56:45;;;;;;;7.38;5.93;;;25.80;92.00;;;;;;5085035;28;20762;-74
2023/05/20 13:59:34;;;;;;;8.82;5.97;;;25.80;92.80;;;;;;5073257;28;20678;-73
2023/05/20 14:02:23;;;;;;;12.70;6.05;;;25.80;92.40;;;;;;5079703;28;20580;-73
2023/05/20 14:05:13;;;;;;;6.72;6.13;;;25.60;92.90;;;;;;5077839;28;20718;-73
2023/05/20 14:08:03;;;;;;;6.78;5.60;;;25.40;96.20;;;;;;5082799;28;20352;-74
2023/05/20 14:10:54;;;;;;;11.35;6.13;;;24.90;92.10;;;;;;5083558;28;20275;-72
2023/05/20 14:13:44;;;;;;;8.07;6.05;;;25.10;93.10;;;;;;5082359;28;20385;-73
2023/05/20 14:16:33;;;;;;;6.43;5.78;;;25.10;93.30;;;;;;5072700;28;20223;-74
2023/05/20 14:19:22;;;;;;;6.70;5.68;;;25.10;93.30;;;;;;5067300;28;20758;-72
2023/05/20 14:22:13;;;;;;;9.85;6.30;;;25.10;93.70;;;;;;5078276;28;20224;-72
2023/05/20 14:25:02;;;;;;;8.43;5.80;;;25.00;93.90;;;;;;5085213;28;20782;-73
2023/05/20 14:27:52;;;;;;;7.65;5.65;;;25.00;94.40;;;;;;5084343;28;20254;-73
2023/05/20 14:30:41;;;;;;;7.55;5.68;;;25.00;93.70;;;;;;5055896;28;20230;-72
2023/05/20 14:33:30;;;;;;;6.00;5.40;;;25.00;93.40;;;;;;5066331;28;20232;-73
2023/05/20 14:36:19;;;;;;;7.47;5.47;;;24.90;94.10;;;;;;5060185;28;20447;-73
2023/05/20 14:39:08;;;;;;;10.82;5.95;;;24.70;93.90;;;;;;5064576;28;20224;-73
2023/05/20 14:41:57;;;;;;;7.30;5.93;;;24.80;93.80;;;;;;5065995;28;20220;-74